Big Bear Station Historical Data
Daily Summary for April 22, 2017 Units:  English    Metric   Both
« Previous Day
Next Day »
Daily Weekly Monthly Yearly Custom
  High: Low: Average:
Temperature: 74.3 °F 34.2 °F 53.1 °F
Dew Point: 37.1 °F 24.1 °F 31.1 °F
Humidity: 86 % 19 % 50 %
Wind Speed: 8.3 mph 0.0 mph 2 mph
Wind Gust: -999.0 mph - -
Wind:- - WSW
Pressure: 30.19 in 30.13 in -
Precipitation: 0.01 in    
Historical Graphs
 
 
Tabular Data for April 22, 2017
Time Temperature Dew Point Pressure Wind Wind Speed Wind Gust Humidity Rainfall Rate (Hourly)
00:11 40.8 °F 29.2 °F 30.19 in SSE 1.7 mph -999.0 mph 63 % 0 in
00:26 40.5 °F 28.5 °F 30.19 in Calm   -999.0 mph 62 % 0 in
00:41 40.1 °F 28.1 °F 30.19 in SSE 1.7 mph -999.0 mph 62 % 0 in
00:56 39.0 °F 27.1 °F 30.19 in Calm   -999.0 mph 62 % 0 in
01:12 38.7 °F 27.6 °F 30.19 in SSE 1.7 mph -999.0 mph 64 % 0 in
01:27 38.7 °F 30.1 °F 30.19 in Calm   -999.0 mph 71 % 0 in
01:42 38.3 °F 30.7 °F 30.18 in Calm   -999.0 mph 74 % 0 in
01:57 37.8 °F 31.2 °F 30.18 in Calm   -999.0 mph 77 % 0 in
02:12 37.4 °F 30.2 °F 30.18 in Calm   -999.0 mph 75 % 0 in
02:28 37.2 °F 29.0 °F 30.17 in SSE 1.7 mph -999.0 mph 72 % 0 in
02:43 36.9 °F 28.7 °F 30.17 in Calm   -999.0 mph 72 % 0 in
02:58 36.9 °F 28.7 °F 30.17 in Calm   -999.0 mph 72 % 0 in
03:13 36.7 °F 28.9 °F 30.18 in Calm   -999.0 mph 73 % 0 in
03:29 36.0 °F 28.5 °F 30.18 in Calm   -999.0 mph 74 % 0 in
03:44 36.1 °F 29.3 °F 30.17 in South 2.2 mph -999.0 mph 76 % 0 in
03:59 36.0 °F 30.1 °F 30.17 in Calm   -999.0 mph 79 % 0 in
04:14 35.8 °F 30.8 °F 30.17 in South 1.7 mph -999.0 mph 82 % 0 in
04:29 35.4 °F 30.5 °F 30.17 in Calm   -999.0 mph 82 % 0 in
04:45 35.1 °F 29.9 °F 30.16 in Calm   -999.0 mph 81 % 0 in
05:00 34.9 °F 29.7 °F 30.16 in South 1.7 mph -999.0 mph 81 % 0 in
05:15 34.7 °F 30.1 °F 30.16 in South 1.1 mph -999.0 mph 83 % 0 in
05:30 34.5 °F 30.2 °F 30.16 in Calm   -999.0 mph 84 % 0 in
05:45 34.2 °F 30.5 °F 30.16 in Calm   -999.0 mph 86 % 0 in
06:01 34.3 °F 30.3 °F 30.16 in SSE 1.7 mph -999.0 mph 85 % 0 in
06:16 34.2 °F 29.9 °F 30.16 in SSE 1.1 mph -999.0 mph 84 % 0 in
06:31 34.3 °F 30.0 °F 30.17 in South 1.7 mph -999.0 mph 84 % 0 in
06:46 34.2 °F 29.6 °F 30.17 in Calm   -999.0 mph 83 % 0 in
07:01 34.9 °F 30.0 °F 30.18 in South 1.7 mph -999.0 mph 82 % 0 in
07:17 35.1 °F 29.9 °F 30.18 in Calm   -999.0 mph 81 % 0 in
07:32 36.0 °F 30.7 °F 30.18 in Calm   -999.0 mph 81 % 0 in
07:47 36.7 °F 31.4 °F 30.18 in Calm   -999.0 mph 81 % 0 in
08:02 37.9 °F 32.3 °F 30.19 in Calm   -999.0 mph 80 % 0 in
08:17 39.9 °F 34.2 °F 30.19 in Calm   -999.0 mph 80 % 0 in
08:33 42.1 °F 35.1 °F 30.18 in Calm   -999.0 mph 76 % 0 in
08:48 44.8 °F 36.3 °F 30.18 in Calm   -999.0 mph 72 % 0 in
09:03 48.0 °F 35.2 °F 30.18 in WNW 1.7 mph -999.0 mph 61 % 0 in
09:19 52.3 °F 33.2 °F 30.18 in NW 2.2 mph -999.0 mph 48 % 0 in
09:34 54.5 °F 30.7 °F 30.18 in Calm   -999.0 mph 40 % 0 in
09:49 57.4 °F 25.4 °F 30.18 in West 1.7 mph -999.0 mph 29 % 0 in
10:04 60.1 °F 24.1 °F 30.18 in NW 3.2 mph -999.0 mph 25 % 0 in
10:20 61.7 °F 25.5 °F 30.18 in SSE 1.7 mph -999.0 mph 25 % 0 in
10:35 64.4 °F 27.8 °F 30.18 in NNW 3.2 mph -999.0 mph 25 % 0 in
10:50 66.0 °F 30.1 °F 30.18 in NW 4.2 mph -999.0 mph 26 % 0 in
11:05 66.9 °F 29.9 °F 30.18 in NW 3.7 mph -999.0 mph 25 % 0 in
11:21 68.4 °F 28.1 °F 30.18 in NNW 3.7 mph -999.0 mph 22 % 0 in
11:36 70.2 °F 29.6 °F 30.18 in WNW 3.2 mph -999.0 mph 22 % 0 in
11:51 71.4 °F 31.7 °F 30.18 in NNW 4.7 mph -999.0 mph 23 % 0 in
12:06 71.4 °F 30.6 °F 30.18 in NW 6.3 mph -999.0 mph 22 % 0 in
12:22 72.3 °F 30.2 °F 30.17 in WNW 4.2 mph -999.0 mph 21 % 0 in
12:37 72.5 °F 32.6 °F 30.17 in NNW 4.7 mph -999.0 mph 23 % 0 in
12:53 72.9 °F 31.8 °F 30.17 in NW 4.7 mph -999.0 mph 22 % 0 in
13:08 73.2 °F 32.1 °F 30.17 in NW 4.2 mph -999.0 mph 22 % 0 in
13:23 72.9 °F 32.9 °F 30.17 in NW 5.3 mph -999.0 mph 23 % 0 in
13:38 73.8 °F 32.6 °F 30.16 in NW 5.3 mph -999.0 mph 22 % 0 in
13:54 73.4 °F 28.6 °F 30.16 in NNW 3.2 mph -999.0 mph 19 % 0 in
14:09 74.1 °F 29.2 °F 30.16 in NNW 4.2 mph -999.0 mph 19 % 0 in
14:25 74.1 °F 30.5 °F 30.16 in NW 2.2 mph -999.0 mph 20 % 0 in
14:40 74.3 °F 31.8 °F 30.16 in West 2.7 mph -999.0 mph 21 % 0 in
14:55 73.0 °F 29.6 °F 30.16 in WNW 6.8 mph -999.0 mph 20 % 0 in
15:11 73.0 °F 31.9 °F 30.15 in WNW 4.2 mph -999.0 mph 22 % 0 in
15:26 72.7 °F 30.5 °F 30.15 in NW 3.7 mph -999.0 mph 21 % 0 in
15:42 71.8 °F 30.9 °F 30.15 in West 3.2 mph -999.0 mph 22 % 0 in
15:57 71.6 °F 30.7 °F 30.14 in NNW 8.3 mph -999.0 mph 22 % 0 in
16:12 71.4 °F 29.4 °F 30.14 in NNW 5.3 mph -999.0 mph 21 % 0 in
16:28 70.7 °F 30.0 °F 30.14 in SSE 2.7 mph -999.0 mph 22 % 0 in
16:43 71.2 °F 30.4 °F 30.14 in NW 4.2 mph -999.0 mph 22 % 0 in
16:59 73.0 °F 30.8 °F 30.14 in NW 7.3 mph -999.0 mph 21 % 0 in
17:14 72.5 °F 30.3 °F 30.14 in WNW 3.2 mph -999.0 mph 21 % 0 in
17:29 70.7 °F 28.8 °F 30.14 in North 6.8 mph -999.0 mph 21 % 0 in
17:44 70.9 °F 30.1 °F 30.14 in NNW 1.7 mph -999.0 mph 22 % 0 in
17:59 71.8 °F 32.0 °F 30.14 in SSW 1.7 mph -999.0 mph 23 % 0 in
18:15 71.6 °F 32.9 °F 30.14 in West 1.7 mph -999.0 mph 24 % 0 in
18:30 66.2 °F 33.8 °F 30.14 in NNE 4.7 mph -999.0 mph 30 % 0 in
18:45 63.9 °F 33.5 °F 30.14 in NW 3.7 mph -999.0 mph 32 % 0 in
19:00 61.0 °F 35.9 °F 30.14 in WNW 3.2 mph -999.0 mph 39 % 0 in
19:15 59.4 °F 36.3 °F 30.14 in Calm   -999.0 mph 42 % 0 in
19:31 57.0 °F 37.0 °F 30.14 in South 3.2 mph -999.0 mph 47 % 0 in
19:46 55.4 °F 37.1 °F 30.14 in SSW 3.7 mph -999.0 mph 50 % 0 in
20:01 54.3 °F 37.0 °F 30.14 in SW 1.7 mph -999.0 mph 52 % 0 in
20:16 53.4 °F 36.7 °F 30.15 in Calm   -999.0 mph 53 % 0 in
20:31 52.2 °F 36.5 °F 30.15 in Calm   -999.0 mph 55 % 0 in
20:47 51.3 °F 36.1 °F 30.15 in Calm   -999.0 mph 56 % 0 in
21:02 51.3 °F 34.7 °F 30.16 in SSE 1.7 mph -999.0 mph 53 % 0 in
21:17 50.5 °F 32.5 °F 30.16 in SSW 1.7 mph -999.0 mph 50 % 0 in
21:32 49.6 °F 31.7 °F 30.16 in SSE 1.1 mph -999.0 mph 50 % 0 in
21:48 48.6 °F 31.3 °F 30.16 in Calm   -999.0 mph 51 % 0 in
22:03 47.5 °F 29.3 °F 30.15 in South 1.7 mph -999.0 mph 49 % 0 in
22:18 47.1 °F 29.4 °F 30.15 in South 1.7 mph -999.0 mph 50 % 0 in
22:33 46.2 °F 27.6 °F 30.14 in Calm   -999.0 mph 48 % 0 in
22:48 45.7 °F 30.5 °F 30.14 in Calm   -999.0 mph 55 % 0 in
23:04 45.3 °F 33.0 °F 30.14 in South 1.7 mph -999.0 mph 62 % 0 in
23:19 45.0 °F 32.4 °F 30.13 in Calm   -999.0 mph 61 % 0 in
23:34 44.6 °F 34.3 °F 30.13 in Calm   -999.0 mph 67 % 0 in
23:49 44.1 °F 32.7 °F 30.13 in Calm   -999.0 mph 64 % 0 in
Big Bear CA Weather
Compliments of Weather Underground - 1.5 mb